createdAt,value
2022-10-27T00:00:13.558Z,39.00
2022-10-27T00:00:44.952Z,39.49
2022-10-27T00:01:16.411Z,39.12
2022-10-27T00:01:48.039Z,38.95
2022-10-27T00:02:19.587Z,38.67
2022-10-27T00:02:51.111Z,38.60
2022-10-27T00:03:22.672Z,38.33
2022-10-27T00:03:54.201Z,38.54
2022-10-27T00:04:25.612Z,39.03
2022-10-27T00:04:57.106Z,39.11
2022-10-27T00:05:28.562Z,38.93
2022-10-27T00:06:00.024Z,38.88
2022-10-27T00:06:31.429Z,39.10
2022-10-27T00:07:02.862Z,39.27
2022-10-27T00:07:34.336Z,38.95
2022-10-27T00:08:05.754Z,39.00
2022-10-27T00:08:37.188Z,39.23
2022-10-27T00:09:08.692Z,39.22
2022-10-27T00:09:40.146Z,39.27
2022-10-27T00:10:11.570Z,39.28
2022-10-27T00:10:43.077Z,39.24
2022-10-27T00:11:14.563Z,39.22
2022-10-27T00:11:46.009Z,38.79
2022-10-27T00:12:17.418Z,39.16
2022-10-27T00:12:49.155Z,39.03
2022-10-27T00:13:20.848Z,39.17
2022-10-27T00:13:52.248Z,39.27
2022-10-27T00:14:23.797Z,39.23
2022-10-27T00:14:55.319Z,39.29
2022-10-27T00:15:26.870Z,39.28
2022-10-27T00:15:58.295Z,39.04
2022-10-27T00:16:29.693Z,39.23
2022-10-27T00:17:01.080Z,39.28
2022-10-27T00:17:32.522Z,39.01
2022-10-27T00:18:03.920Z,39.43
2022-10-27T00:18:35.338Z,39.39
2022-10-27T00:19:07.172Z,39.29
2022-10-27T00:19:38.591Z,39.32
2022-10-27T00:20:10.076Z,38.94
2022-10-27T00:20:41.513Z,39.03
2022-10-27T00:21:12.914Z,39.10
2022-10-27T00:21:44.369Z,39.16
2022-10-27T00:22:15.828Z,39.25
2022-10-27T00:22:47.370Z,38.97
2022-10-27T00:23:18.964Z,38.87
2022-10-27T00:23:50.413Z,39.07
2022-10-27T00:24:21.878Z,39.26
2022-10-27T00:24:53.306Z,39.37
2022-10-27T00:25:24.684Z,39.10
2022-10-27T00:25:56.128Z,39.37
2022-10-27T00:26:27.568Z,38.97
2022-10-27T00:26:59.119Z,38.94
2022-10-27T00:27:30.658Z,39.28
2022-10-27T00:28:02.121Z,39.22
2022-10-27T00:28:33.636Z,39.24
2022-10-27T00:29:05.016Z,39.26
2022-10-27T00:29:36.356Z,39.03
2022-10-27T00:30:07.791Z,39.29
2022-10-27T00:30:39.234Z,39.33
2022-10-27T00:31:10.688Z,39.03
2022-10-27T00:31:42.205Z,39.08
2022-10-27T00:32:13.620Z,39.29
2022-10-27T00:32:45.096Z,39.30
2022-10-27T00:33:16.493Z,39.22
2022-10-27T00:33:47.852Z,39.28
2022-10-27T00:34:19.235Z,39.48
2022-10-27T00:34:50.615Z,39.44
2022-10-27T00:35:22.037Z,39.03
2022-10-27T00:35:53.433Z,39.36
2022-10-27T00:36:24.856Z,39.19
2022-10-27T00:36:56.366Z,39.43
2022-10-27T00:37:27.777Z,39.35
2022-10-27T00:37:59.159Z,39.10
2022-10-27T00:38:30.555Z,39.52
2022-10-27T00:39:01.942Z,39.43
2022-10-27T00:39:33.410Z,39.45
2022-10-27T00:40:04.835Z,39.21
2022-10-27T00:40:36.295Z,39.42
2022-10-27T00:41:07.740Z,39.33
2022-10-27T00:41:39.170Z,39.16
2022-10-27T00:42:10.634Z,39.36
2022-10-27T00:42:42.066Z,39.38
2022-10-27T00:43:13.469Z,39.49
2022-10-27T00:43:44.958Z,39.05
2022-10-27T00:44:16.373Z,38.50
2022-10-27T00:44:47.805Z,38.14
2022-10-27T00:45:19.273Z,37.95
2022-10-27T00:45:50.731Z,37.89
2022-10-27T00:46:22.107Z,37.84
2022-10-27T00:46:53.547Z,38.30
2022-10-27T00:47:25.068Z,38.23
2022-10-27T00:47:56.498Z,38.46
2022-10-27T00:48:28.026Z,38.37
2022-10-27T00:48:59.432Z,38.27
2022-10-27T00:49:30.847Z,38.54
2022-10-27T00:50:02.494Z,38.66
2022-10-27T00:50:33.919Z,38.69
2022-10-27T00:51:05.345Z,38.69
2022-10-27T00:51:36.777Z,38.41
2022-10-27T00:52:08.228Z,38.46
2022-10-27T00:52:39.665Z,38.41
2022-10-27T00:53:11.156Z,38.73
2022-10-27T00:53:42.574Z,38.63
2022-10-27T00:54:13.973Z,38.37
2022-10-27T00:54:45.391Z,38.71
2022-10-27T00:55:16.811Z,38.38
2022-10-27T00:55:48.251Z,38.33
2022-10-27T00:56:19.666Z,38.71
2022-10-27T00:56:51.069Z,38.63
2022-10-27T00:57:22.455Z,38.77
2022-10-27T00:57:54.078Z,38.84
2022-10-27T00:58:25.774Z,38.48
2022-10-27T00:58:57.178Z,38.54
2022-10-27T00:59:28.631Z,38.84
2022-10-27T01:00:00.062Z,38.81
2022-10-27T01:00:31.616Z,38.61
2022-10-27T01:01:03.124Z,38.65
2022-10-27T01:01:34.727Z,38.46
2022-10-27T01:02:06.226Z,38.86
2022-10-27T01:02:37.704Z,38.50
2022-10-27T01:03:09.114Z,38.45
2022-10-27T01:03:40.521Z,38.65
2022-10-27T01:04:12.061Z,38.62
2022-10-27T01:04:43.471Z,38.49
2022-10-27T01:05:14.988Z,38.51
2022-10-27T01:05:46.429Z,38.51
2022-10-27T01:06:17.861Z,38.81
2022-10-27T01:06:49.237Z,38.43
2022-10-27T01:07:20.673Z,38.51
2022-10-27T01:07:52.042Z,38.48
2022-10-27T01:08:23.437Z,38.81
2022-10-27T01:08:54.793Z,38.81
2022-10-27T01:09:26.253Z,38.75
2022-10-27T01:09:57.651Z,38.57
2022-10-27T01:10:29.075Z,38.65
2022-10-27T01:11:00.473Z,38.72
2022-10-27T01:11:31.881Z,38.47
2022-10-27T01:12:03.487Z,38.45
2022-10-27T01:12:34.905Z,38.74
2022-10-27T01:13:06.323Z,38.87
2022-10-27T01:13:37.761Z,38.69
2022-10-27T01:14:09.180Z,38.64
2022-10-27T01:14:40.613Z,38.83
2022-10-27T01:15:12.088Z,38.87
2022-10-27T01:15:43.523Z,38.70
2022-10-27T01:16:14.969Z,38.60
2022-10-27T01:16:46.332Z,38.85
2022-10-27T01:17:17.799Z,38.63
2022-10-27T01:17:49.203Z,38.95
2022-10-27T01:18:20.723Z,38.92
2022-10-27T01:18:52.149Z,38.81
